createdAt,value
2019-05-21T00:00:26.417Z,9.63
2019-05-21T00:02:52.586Z,10.03
2019-05-21T00:05:18.831Z,10.32
2019-05-21T00:07:45.044Z,9.90
2019-05-21T00:10:11.483Z,10.48
2019-05-21T00:12:37.764Z,10.72
2019-05-21T00:15:05.036Z,11.15
2019-05-21T00:17:31.327Z,9.70
2019-05-21T00:19:57.576Z,10.38
2019-05-21T00:22:23.751Z,11.07
2019-05-21T00:24:49.982Z,11.10
2019-05-21T00:27:16.406Z,13.27
2019-05-21T00:30:19.922Z,12.83
2019-05-21T00:33:23.243Z,13.25
2019-05-21T00:36:26.755Z,12.10
2019-05-21T00:39:30.241Z,12.40
2019-05-21T00:42:02.852Z,13.88
2019-05-21T00:44:41.148Z,14.85
2019-05-21T00:47:09.033Z,13.57
2019-05-21T00:49:35.211Z,14.00
2019-05-21T00:52:08.212Z,15.80
2019-05-21T00:54:29.555Z,15.30
2019-05-21T00:56:55.725Z,17.10
2019-05-21T00:59:21.941Z,16.40
2019-05-21T01:01:48.110Z,17.17
2019-05-21T01:04:14.290Z,17.90
2019-05-21T01:06:40.942Z,18.30
2019-05-21T01:09:07.674Z,17.13
2019-05-21T01:11:33.861Z,18.57
2019-05-21T01:14:00.046Z,18.13
2019-05-21T01:16:26.522Z,18.15
2019-05-21T01:18:52.818Z,18.00
2019-05-21T01:21:18.989Z,18.95
2019-05-21T01:23:45.155Z,17.25
2019-05-21T01:26:11.401Z,17.35
2019-05-21T01:28:37.610Z,18.37
2019-05-21T01:31:03.823Z,18.67
2019-05-21T01:33:30.022Z,17.97
2019-05-21T01:35:56.193Z,19.15
2019-05-21T01:38:22.401Z,17.37
2019-05-21T01:40:48.576Z,20.02
2019-05-21T01:43:14.839Z,18.77
2019-05-21T01:45:41.001Z,17.80
2019-05-21T01:48:07.367Z,19.60
2019-05-21T01:50:33.666Z,18.90
2019-05-21T01:53:00.091Z,17.57
2019-05-21T01:55:26.237Z,18.15
2019-05-21T01:57:52.489Z,18.40
2019-05-21T02:00:18.775Z,18.82
2019-05-21T02:02:44.959Z,17.02
2019-05-21T02:05:11.451Z,17.30
2019-05-21T02:07:37.856Z,16.83
2019-05-21T02:10:05.963Z,17.42
2019-05-21T02:12:32.264Z,16.85
2019-05-21T02:14:58.536Z,17.98
2019-05-21T02:17:24.826Z,17.53
2019-05-21T02:19:50.995Z,17.30
2019-05-21T02:22:17.393Z,18.00
2019-05-21T02:24:43.586Z,17.05
2019-05-21T02:27:09.755Z,17.37
2019-05-21T02:29:35.932Z,17.70
2019-05-21T02:32:02.236Z,17.83
2019-05-21T02:34:28.498Z,17.53
2019-05-21T02:36:54.922Z,17.07
2019-05-21T02:39:21.114Z,17.67
2019-05-21T02:41:47.359Z,18.20
2019-05-21T02:44:13.623Z,17.10
2019-05-21T02:46:39.776Z,18.10
2019-05-21T02:49:05.970Z,15.87
2019-05-21T02:51:32.368Z,17.05
2019-05-21T02:53:58.585Z,17.82
2019-05-21T02:56:24.879Z,16.60
2019-05-21T02:58:51.063Z,18.55
2019-05-21T03:01:32.040Z,16.80
2019-05-21T03:03:58.286Z,17.25
2019-05-21T03:06:24.501Z,17.70
2019-05-21T03:08:50.746Z,16.97
2019-05-21T03:11:17.113Z,16.73
2019-05-21T03:13:43.319Z,16.50
2019-05-21T03:16:09.473Z,16.27
2019-05-21T03:18:35.676Z,15.87
2019-05-21T03:21:01.854Z,16.77
2019-05-21T03:23:28.069Z,15.63
2019-05-21T03:25:54.398Z,14.83
2019-05-21T03:28:20.799Z,15.85
2019-05-21T03:30:47.095Z,16.00
2019-05-21T03:33:13.441Z,15.40
2019-05-21T03:35:39.745Z,14.58
2019-05-21T03:38:06.040Z,14.68
2019-05-21T03:40:32.362Z,15.05
2019-05-21T03:42:58.706Z,14.40
2019-05-21T03:45:24.925Z,15.88
2019-05-21T03:47:51.464Z,16.70
2019-05-21T03:50:17.733Z,15.17
2019-05-21T03:52:43.907Z,15.97
2019-05-21T03:55:10.826Z,15.72
2019-05-21T03:57:37.072Z,14.78
2019-05-21T04:00:09.647Z,14.57
2019-05-21T04:02:36.157Z,14.33
2019-05-21T04:05:04.608Z,14.00
2019-05-21T04:07:30.864Z,14.28
2019-05-21T04:09:57.206Z,12.83
2019-05-21T04:12:23.390Z,13.13
2019-05-21T04:14:54.432Z,12.75
2019-05-21T04:17:35.039Z,12.45
2019-05-21T04:20:02.429Z,12.23
2019-05-21T04:22:28.736Z,11.68
2019-05-21T04:24:54.998Z,12.23
2019-05-21T04:27:21.301Z,11.18
2019-05-21T04:29:47.488Z,10.28
2019-05-21T04:32:13.697Z,11.68
2019-05-21T04:34:39.967Z,10.95
2019-05-21T04:37:10.763Z,10.57
2019-05-21T04:39:34.657Z,9.93
2019-05-21T04:42:00.925Z,9.60
2019-05-21T04:44:27.157Z,10.23
2019-05-21T04:46:53.547Z,11.00
2019-05-21T04:49:19.949Z,10.63
2019-05-21T04:51:46.729Z,10.48
2019-05-21T04:54:14.168Z,9.25
2019-05-21T04:56:41.000Z,10.43
2019-05-21T04:59:07.788Z,9.47
2019-05-21T05:01:34.293Z,9.97
2019-05-21T05:04:01.028Z,10.18
2019-05-21T05:06:27.554Z,10.47
2019-05-21T05:08:53.891Z,9.08
2019-05-21T05:11:20.420Z,8.68
2019-05-21T05:13:46.852Z,8.50
2019-05-21T05:16:13.214Z,8.83
2019-05-21T05:18:39.688Z,8.40
2019-05-21T05:21:06.049Z,9.00
2019-05-21T05:23:32.448Z,9.37
2019-05-21T05:25:58.852Z,8.60
2019-05-21T05:28:25.291Z,8.93
2019-05-21T05:30:51.772Z,9.85
2019-05-21T05:33:18.160Z,10.53
2019-05-21T05:35:44.842Z,9.08
2019-05-21T05:38:11.422Z,9.18
2019-05-21T05:40:37.736Z,9.20
2019-05-21T05:43:04.159Z,8.17
2019-05-21T05:45:30.816Z,9.45
2019-05-21T05:47:57.088Z,9.20
2019-05-21T05:50:25.425Z,7.60
2019-05-21T05:52:51.937Z,9.50
2019-05-21T05:55:18.633Z,8.73
2019-05-21T05:57:44.973Z,10.10
2019-05-21T06:00:12.608Z,8.67
2019-05-21T06:02:39.081Z,8.48
2019-05-21T06:05:06.451Z,9.43
2019-05-21T06:07:33.201Z,8.55
2019-05-21T06:09:59.808Z,9.88
2019-05-21T06:12:26.180Z,8.53
2019-05-21T06:14:53.100Z,9.40
2019-05-21T06:17:19.694Z,10.35
2019-05-21T06:19:46.176Z,8.95
2019-05-21T06:22:12.962Z,9.13
2019-05-21T06:24:39.715Z,10.08
2019-05-21T06:27:06.166Z,8.40
2019-05-21T06:29:32.963Z,9.45
2019-05-21T06:31:59.230Z,9.00
2019-05-21T06:34:25.710Z,8.97
2019-05-21T06:36:52.108Z,9.75
2019-05-21T06:39:18.607Z,10.40
2019-05-21T06:41:45.112Z,8.68
2019-05-21T06:44:11.591Z,9.27
2019-05-21T06:46:38.171Z,9.77
2019-05-21T06:49:04.875Z,9.53
2019-05-21T06:51:31.273Z,8.95
2019-05-21T06:53:57.724Z,10.27
2019-05-21T06:56:24.317Z,9.63
2019-05-21T06:58:50.991Z,9.20
2019-05-21T07:01:17.507Z,8.45
2019-05-21T07:03:44.228Z,8.13
2019-05-21T07:06:10.922Z,8.13
2019-05-21T07:08:37.394Z,9.50
2019-05-21T07:11:03.975Z,8.48
2019-05-21T07:13:31.126Z,8.20
2019-05-21T07:15:58.033Z,7.40
2019-05-21T07:18:24.649Z,7.83
2019-05-21T07:20:51.112Z,7.37
2019-05-21T07:23:17.577Z,6.63
2019-05-21T07:25:44.091Z,6.33
2019-05-21T07:28:10.742Z,6.95
2019-05-21T07:30:37.260Z,6.00
2019-05-21T07:33:03.981Z,6.40
2019-05-21T07:35:30.606Z,4.85
2019-05-21T07:37:57.178Z,5.55
2019-05-21T07:40:23.643Z,5.37
2019-05-21T07:42:50.528Z,5.58
2019-05-21T07:45:17.327Z,5.40
2019-05-21T07:47:43.784Z,4.80
2019-05-21T07:50:11.094Z,4.80
2019-05-21T07:52:37.654Z,4.90
2019-05-21T07:55:04.702Z,5.93
2019-05-21T07:57:31.321Z,5.10
2019-05-21T07:59:57.597Z,5.50
2019-05-21T08:02:24.247Z,4.90
2019-05-21T08:04:50.854Z,5.43
2019-05-21T08:07:17.222Z,5.17
2019-05-21T08:09:43.611Z,4.87
2019-05-21T08:12:27.893Z,5.28
2019-05-21T08:14:38.419Z,4.90
2019-05-21T08:17:05.293Z,4.85
2019-05-21T08:19:32.358Z,4.47
2019-05-21T08:21:59.041Z,4.17
2019-05-21T08:24:25.417Z,4.80
2019-05-21T08:26:52.271Z,4.90
2019-05-21T08:29:18.872Z,4.10
2019-05-21T08:31:45.235Z,4.57
2019-05-21T08:34:12.091Z,4.67
2019-05-21T08:36:38.804Z,4.57
2019-05-21T08:39:06.488Z,4.13
2019-05-21T08:41:33.114Z,4.30
2019-05-21T08:43:59.311Z,4.77
2019-05-21T08:46:25.640Z,4.67
2019-05-21T08:48:52.407Z,4.17
2019-05-21T08:51:18.961Z,4.10
2019-05-21T08:53:45.525Z,4.28
2019-05-21T08:56:12.149Z,4.17
2019-05-21T08:58:38.824Z,4.00
2019-05-21T09:01:05.285Z,4.30
2019-05-21T09:03:31.807Z,4.25
2019-05-21T09:05:58.755Z,4.33
2019-05-21T09:08:26.441Z,3.75
2019-05-21T09:10:53.963Z,4.08
2019-05-21T09:13:20.697Z,3.50
2019-05-21T09:15:47.152Z,4.05
2019-05-21T09:18:13.626Z,4.60
2019-05-21T09:20:40.449Z,4.37
2019-05-21T09:23:06.990Z,4.10
2019-05-21T09:25:33.481Z,3.75
2019-05-21T09:28:00.173Z,4.47
2019-05-21T09:30:26.683Z,3.70
2019-05-21T09:32:53.130Z,4.23
2019-05-21T09:35:20.467Z,4.00
2019-05-21T09:37:47.121Z,4.37
2019-05-21T09:40:15.274Z,4.72
2019-05-21T09:42:45.213Z,4.40
2019-05-21T09:45:10.864Z,4.57
2019-05-21T09:47:37.429Z,4.80
2019-05-21T09:50:05.517Z,4.12
2019-05-21T09:52:32.227Z,5.60
2019-05-21T09:54:58.618Z,5.00
2019-05-21T09:57:29.947Z,4.80
2019-05-21T10:00:02.058Z,4.57
2019-05-21T10:02:31.143Z,4.30
2019-05-21T10:04:57.592Z,4.93
2019-05-21T10:07:39.379Z,3.90
2019-05-21T10:09:52.324Z,4.37
2019-05-21T10:12:18.820Z,4.83
2019-05-21T10:14:45.053Z,4.60
2019-05-21T10:17:11.657Z,4.67
2019-05-21T10:19:38.246Z,4.28
2019-05-21T10:22:04.738Z,4.53
2019-05-21T10:24:31.098Z,4.72
2019-05-21T10:26:57.347Z,4.70
2019-05-21T10:29:23.787Z,4.03
2019-05-21T10:31:50.419Z,5.08
2019-05-21T10:34:18.060Z,4.45
2019-05-21T10:36:44.645Z,4.60
2019-05-21T10:39:11.336Z,4.60
2019-05-21T10:41:37.652Z,4.33
2019-05-21T10:44:04.718Z,5.37
2019-05-21T10:46:30.963Z,5.25
2019-05-21T10:48:57.329Z,5.10
2019-05-21T10:51:23.892Z,5.65
2019-05-21T10:53:50.604Z,5.15
2019-05-21T10:56:17.050Z,5.35
2019-05-21T10:58:43.373Z,4.72
2019-05-21T11:01:11.944Z,5.85
2019-05-21T11:03:52.599Z,5.58
2019-05-21T11:06:19.138Z,5.03
2019-05-21T11:08:45.497Z,5.40
2019-05-21T11:11:11.920Z,5.10
2019-05-21T11:13:39.663Z,4.57
2019-05-21T11:16:06.436Z,5.50
2019-05-21T11:18:33.017Z,4.62
2019-05-21T11:20:59.431Z,5.12
2019-05-21T11:23:25.838Z,4.72
2019-05-21T11:25:52.502Z,5.03
2019-05-21T11:28:18.768Z,5.45
2019-05-21T11:30:45.351Z,5.03
2019-05-21T11:33:11.743Z,4.58
2019-05-21T11:35:38.503Z,4.60
2019-05-21T11:38:04.992Z,4.95
2019-05-21T11:40:31.673Z,4.95
2019-05-21T11:42:58.665Z,4.97
2019-05-21T11:45:32.114Z,4.35
2019-05-21T11:47:54.697Z,4.50
2019-05-21T11:50:21.385Z,5.05
2019-05-21T11:52:47.846Z,4.85
2019-05-21T11:55:15.268Z,5.22
2019-05-21T11:57:41.881Z,4.47
2019-05-21T12:00:09.419Z,5.12
2019-05-21T12:02:37.048Z,5.35
2019-05-21T12:05:05.077Z,5.60
2019-05-21T12:07:31.346Z,4.78
2019-05-21T12:09:57.678Z,4.75
2019-05-21T12:12:24.517Z,4.92
2019-05-21T12:14:51.062Z,5.33
2019-05-21T12:17:17.476Z,5.50
2019-05-21T12:19:43.771Z,4.87
2019-05-21T12:22:10.364Z,5.03
2019-05-21T12:24:37.137Z,5.25
2019-05-21T12:27:03.684Z,5.62
2019-05-21T12:29:33.503Z,5.20
2019-05-21T12:31:58.620Z,5.85
2019-05-21T12:34:24.947Z,5.65
2019-05-21T12:36:51.760Z,5.28
2019-05-21T12:39:18.562Z,5.70
2019-05-21T12:41:45.023Z,5.92
2019-05-21T12:44:11.522Z,5.35
2019-05-21T12:46:38.298Z,5.65
2019-05-21T12:49:05.039Z,5.58
2019-05-21T12:51:31.208Z,5.15
2019-05-21T12:53:57.543Z,6.05
2019-05-21T12:56:23.886Z,5.60
2019-05-21T12:58:50.547Z,5.80
2019-05-21T13:01:16.909Z,5.85
2019-05-21T13:03:43.119Z,6.40
2019-05-21T13:06:09.314Z,5.55
2019-05-21T13:08:36.089Z,5.92
2019-05-21T13:11:02.344Z,5.42
2019-05-21T13:13:28.694Z,5.00
2019-05-21T13:15:54.986Z,5.08
2019-05-21T13:18:21.745Z,5.10
2019-05-21T13:20:48.053Z,4.60
2019-05-21T13:23:14.713Z,5.03
2019-05-21T13:25:42.771Z,5.12
2019-05-21T13:28:09.017Z,4.97
2019-05-21T13:30:35.672Z,4.87
2019-05-21T13:33:02.642Z,4.80
2019-05-21T13:35:29.242Z,4.65
2019-05-21T13:37:55.751Z,4.70
2019-05-21T13:40:22.725Z,5.00
2019-05-21T13:42:49.333Z,4.95
2019-05-21T13:45:15.985Z,5.50
2019-05-21T13:47:42.752Z,4.37
2019-05-21T13:50:09.710Z,4.97
2019-05-21T13:52:36.258Z,4.62
2019-05-21T13:55:06.264Z,4.97
2019-05-21T13:57:33.142Z,5.22
2019-05-21T13:59:59.596Z,4.35
2019-05-21T14:02:26.371Z,4.80
2019-05-21T14:04:53.009Z,5.53
2019-05-21T14:07:19.662Z,5.53
2019-05-21T14:09:46.345Z,5.30
2019-05-21T14:12:13.882Z,6.03
2019-05-21T14:14:40.483Z,5.90
2019-05-21T14:17:08.672Z,5.70
2019-05-21T14:19:35.718Z,5.42
2019-05-21T14:22:02.445Z,6.22
2019-05-21T14:24:29.319Z,6.17
2019-05-21T14:26:55.862Z,6.45
2019-05-21T14:29:22.327Z,6.00
2019-05-21T14:31:48.982Z,6.37
2019-05-21T14:34:15.633Z,5.70
2019-05-21T14:36:42.206Z,6.22
2019-05-21T14:39:13.232Z,5.92
2019-05-21T14:41:39.566Z,6.17
2019-05-21T14:44:05.856Z,6.35
2019-05-21T14:46:32.580Z,5.58
2019-05-21T14:48:58.977Z,5.87
2019-05-21T14:51:25.201Z,6.33
2019-05-21T14:53:53.328Z,6.08
2019-05-21T14:56:19.576Z,5.70
2019-05-21T14:58:46.021Z,6.00
2019-05-21T15:01:12.533Z,6.03
2019-05-21T15:03:39.045Z,5.62
2019-05-21T15:06:05.278Z,5.35
2019-05-21T15:08:32.053Z,6.37
2019-05-21T15:10:58.702Z,5.72
2019-05-21T15:13:25.023Z,5.40
2019-05-21T15:15:51.280Z,6.83
2019-05-21T15:18:22.130Z,6.47
2019-05-21T15:20:47.735Z,6.37
2019-05-21T15:23:14.563Z,6.55
2019-05-21T15:25:41.026Z,6.20
2019-05-21T15:28:07.310Z,6.33
2019-05-21T15:30:33.837Z,6.55
2019-05-21T15:33:00.358Z,7.17
2019-05-21T15:35:26.929Z,6.65
2019-05-21T15:37:53.226Z,7.35
2019-05-21T15:40:20.438Z,6.65
2019-05-21T15:42:51.938Z,6.97
2019-05-21T15:45:15.294Z,5.72
2019-05-21T15:47:42.243Z,6.50
2019-05-21T15:50:09.189Z,6.22
2019-05-21T15:52:35.440Z,6.42
2019-05-21T15:55:06.767Z,6.95
2019-05-21T15:57:31.164Z,6.78
2019-05-21T15:59:57.402Z,7.35
2019-05-21T16:02:23.712Z,7.28
2019-05-21T16:04:50.207Z,7.03
2019-05-21T16:07:16.825Z,6.25
2019-05-21T16:09:43.471Z,7.22
2019-05-21T16:12:09.790Z,6.97
2019-05-21T16:14:36.106Z,7.17
2019-05-21T16:17:02.413Z,8.10
2019-05-21T16:19:28.790Z,7.20
2019-05-21T16:21:54.984Z,7.50
2019-05-21T16:24:21.335Z,7.85
2019-05-21T16:26:47.713Z,7.03
2019-05-21T16:29:14.212Z,7.70
2019-05-21T16:31:40.674Z,8.05
2019-05-21T16:34:06.972Z,7.33
2019-05-21T16:36:33.565Z,7.62
2019-05-21T16:39:00.022Z,8.60
2019-05-21T16:41:27.039Z,8.23
2019-05-21T16:43:53.449Z,9.33
2019-05-21T16:46:20.275Z,8.78
2019-05-21T16:48:47.471Z,8.55
2019-05-21T16:51:14.155Z,8.45
2019-05-21T16:53:40.732Z,8.15
2019-05-21T16:56:07.226Z,8.08
2019-05-21T16:58:33.691Z,9.23
2019-05-21T17:01:00.923Z,9.33
2019-05-21T17:03:27.279Z,8.78
2019-05-21T17:05:53.742Z,8.10
2019-05-21T17:08:20.022Z,7.92
2019-05-21T17:10:46.609Z,8.53
2019-05-21T17:13:13.022Z,7.60
2019-05-21T17:15:39.563Z,8.03
2019-05-21T17:18:06.474Z,8.03
2019-05-21T17:20:34.249Z,8.68
2019-05-21T17:23:01.003Z,8.20
2019-05-21T17:25:27.250Z,8.03
2019-05-21T17:27:53.720Z,8.20
2019-05-21T17:30:20.262Z,8.65
2019-05-21T17:32:46.643Z,8.18
2019-05-21T17:35:13.149Z,8.65
2019-05-21T17:37:39.501Z,8.63
2019-05-21T17:40:06.520Z,7.80
2019-05-21T17:42:33.167Z,8.93
2019-05-21T17:44:59.507Z,8.28
2019-05-21T17:47:25.919Z,8.38
2019-05-21T17:49:52.335Z,7.87
2019-05-21T17:52:18.577Z,8.45
2019-05-21T17:54:56.140Z,7.05
2019-05-21T17:57:13.013Z,8.78
2019-05-21T17:59:39.846Z,8.75
2019-05-21T18:02:08.227Z,7.87
2019-05-21T18:04:35.430Z,7.35
2019-05-21T18:07:02.601Z,9.20
2019-05-21T18:09:29.330Z,9.50
2019-05-21T18:11:55.923Z,8.58
2019-05-21T18:14:22.500Z,8.00
2019-05-21T18:16:49.089Z,9.03
2019-05-21T18:19:15.868Z,8.58
2019-05-21T18:21:42.170Z,9.28
2019-05-21T18:24:09.205Z,8.75
2019-05-21T18:26:35.981Z,10.28
2019-05-21T18:29:02.334Z,9.70
2019-05-21T18:31:28.624Z,10.28
2019-05-21T18:33:55.208Z,9.63
2019-05-21T18:36:21.897Z,9.80
2019-05-21T18:38:48.164Z,9.45
2019-05-21T18:41:15.022Z,9.93
2019-05-21T18:43:41.622Z,10.63
2019-05-21T18:46:08.038Z,10.18
2019-05-21T18:48:34.445Z,10.70
2019-05-21T18:51:01.012Z,10.38
2019-05-21T18:53:27.483Z,10.18
2019-05-21T18:55:53.973Z,9.90
2019-05-21T18:58:20.202Z,9.33
2019-05-21T19:00:46.672Z,11.20
2019-05-21T19:03:13.552Z,10.68
2019-05-21T19:05:40.157Z,9.90
2019-05-21T19:08:06.596Z,10.35
2019-05-21T19:10:32.927Z,10.75
2019-05-21T19:13:01.092Z,10.08
2019-05-21T19:15:28.106Z,11.03
2019-05-21T19:17:54.517Z,10.23
2019-05-21T19:20:22.138Z,10.20
2019-05-21T19:22:48.506Z,9.70
2019-05-21T19:25:15.394Z,13.48
2019-05-21T19:27:41.900Z,11.05
2019-05-21T19:30:09.514Z,9.93
2019-05-21T19:32:35.924Z,10.68
2019-05-21T19:35:05.847Z,11.33
2019-05-21T19:37:32.204Z,10.50
2019-05-21T19:39:58.382Z,11.28
2019-05-21T19:42:24.873Z,11.57
2019-05-21T19:44:51.263Z,10.50
2019-05-21T19:47:17.454Z,10.45
2019-05-21T19:49:43.670Z,11.27
2019-05-21T19:52:09.988Z,11.20
2019-05-21T19:54:36.176Z,11.25
2019-05-21T19:57:03.093Z,11.30
2019-05-21T19:59:29.364Z,11.33
2019-05-21T20:01:56.322Z,11.48
2019-05-21T20:04:23.185Z,11.57
2019-05-21T20:06:49.746Z,12.03
2019-05-21T20:09:16.872Z,12.47
2019-05-21T20:11:43.437Z,12.03
2019-05-21T20:14:09.648Z,11.73
2019-05-21T20:16:37.131Z,13.50
2019-05-21T20:19:04.482Z,12.33
2019-05-21T20:21:31.467Z,12.33
2019-05-21T20:23:57.833Z,12.77
2019-05-21T20:26:26.362Z,12.00
2019-05-21T20:28:53.410Z,12.35
2019-05-21T20:31:20.748Z,12.95
2019-05-21T20:33:49.309Z,11.97
2019-05-21T20:36:15.761Z,13.35
2019-05-21T20:38:42.882Z,11.30
2019-05-21T20:41:09.962Z,11.57
2019-05-21T20:43:36.732Z,12.65
2019-05-21T20:46:04.699Z,11.15
2019-05-21T20:48:33.173Z,11.63
2019-05-21T20:50:59.884Z,10.93
2019-05-21T20:53:26.300Z,11.05
2019-05-21T20:55:52.682Z,11.50
2019-05-21T20:58:19.519Z,12.23
2019-05-21T21:00:48.039Z,12.07
2019-05-21T21:03:14.453Z,10.58
2019-05-21T21:05:40.791Z,10.53
2019-05-21T21:08:08.067Z,12.13
2019-05-21T21:10:34.723Z,11.47
2019-05-21T21:13:01.662Z,12.93
2019-05-21T21:15:28.084Z,12.33
2019-05-21T21:17:54.443Z,13.47
2019-05-21T21:20:20.843Z,13.58
2019-05-21T21:22:47.370Z,14.13
2019-05-21T21:25:19.417Z,13.53
2019-05-21T21:27:45.976Z,13.50
2019-05-21T21:30:12.726Z,14.83
2019-05-21T21:32:39.249Z,14.78
2019-05-21T21:35:05.958Z,13.70
2019-05-21T21:37:33.053Z,13.97
2019-05-21T21:39:59.540Z,12.98
2019-05-21T21:42:25.734Z,13.60
2019-05-21T21:44:52.392Z,15.20
2019-05-21T21:47:18.949Z,14.58
2019-05-21T21:49:45.901Z,14.65
2019-05-21T21:52:14.136Z,14.17
2019-05-21T21:54:41.868Z,15.40
2019-05-21T21:57:08.248Z,16.60
2019-05-21T21:59:34.678Z,15.07
2019-05-21T22:02:25.994Z,15.00
2019-05-21T22:04:53.958Z,14.67
2019-05-21T22:07:22.080Z,13.67
2019-05-21T22:09:48.245Z,13.37
2019-05-21T22:12:16.363Z,14.65
2019-05-21T22:14:51.821Z,13.17
2019-05-21T22:17:12.889Z,12.13
2019-05-21T22:19:39.651Z,11.83
2019-05-21T22:22:06.564Z,11.40
2019-05-21T22:24:32.867Z,12.83
2019-05-21T22:26:59.097Z,10.00
2019-05-21T22:29:25.486Z,11.40
2019-05-21T22:31:51.942Z,11.38
2019-05-21T22:34:18.422Z,10.30
2019-05-21T22:36:44.822Z,11.13
2019-05-21T22:39:18.656Z,10.13
2019-05-21T22:41:44.934Z,10.03
2019-05-21T22:44:11.663Z,10.23
2019-05-21T22:46:37.844Z,11.63
2019-05-21T22:49:04.123Z,10.80
2019-05-21T22:51:30.336Z,11.10
2019-05-21T22:53:56.593Z,11.77
2019-05-21T22:56:22.781Z,10.60
2019-05-21T22:58:49.010Z,10.57
2019-05-21T23:01:15.798Z,12.40
2019-05-21T23:03:42.580Z,11.17
2019-05-21T23:06:09.166Z,11.07
2019-05-21T23:08:36.016Z,9.73
2019-05-21T23:11:02.217Z,12.00
2019-05-21T23:13:28.477Z,10.40
2019-05-21T23:15:55.748Z,9.48
2019-05-21T23:18:22.173Z,10.83
2019-05-21T23:20:48.994Z,9.23
2019-05-21T23:23:15.555Z,9.53
2019-05-21T23:25:42.987Z,8.43
2019-05-21T23:28:09.343Z,9.73
2019-05-21T23:30:35.540Z,9.70
2019-05-21T23:33:03.357Z,11.57
2019-05-21T23:35:29.753Z,12.27
2019-05-21T23:37:55.928Z,12.67
2019-05-21T23:40:23.733Z,12.27
2019-05-21T23:42:49.982Z,11.70
2019-05-21T23:45:16.767Z,10.67
2019-05-21T23:47:43.568Z,10.70
2019-05-21T23:50:12.385Z,10.90
2019-05-21T23:52:39.658Z,10.43
2019-05-21T23:55:06.884Z,10.13
2019-05-21T23:57:35.817Z,10.43
